Time;durP1;ratioP1;P1;durP2;ratioP2;P2;SDS_P1;SDS_P2;PMS_P1;PMS_P2;Temp;Humidity;BMP_temperature;BMP_pressure;BME280_temperature;BME280_humidity;BME280_pressure;Samples;Min_cycle;Max_cycle;Signal;HPM_P1;HPM_P2
2022/03/01 00:01:58;;;;;;;14.37;9.60;;;;;;;;;;5009976;28;20183;-74
2022/03/01 00:04:25;;;;;;;14.83;9.47;;;;;;;;;;5008273;28;20187;-74
2022/03/01 00:06:51;;;;;;;16.30;9.93;;;;;;;;;;5004893;28;20227;-73
2022/03/01 00:09:17;;;;;;;16.03;9.40;;;;;;;;;;5008649;28;20190;-73
2022/03/01 00:11:44;;;;;;;15.63;9.57;;;;;;;;;;5005466;28;20187;-73
2022/03/01 00:14:10;;;;;;;16.17;9.77;;;;;;;;;;5009724;28;20189;-75
2022/03/01 00:16:37;;;;;;;18.27;10.60;;;;;;;;;;4991078;28;20279;-74
2022/03/01 00:19:03;;;;;;;17.07;9.73;;;;;;;;;;5008769;28;20672;-74
2022/03/01 00:21:30;;;;;;;29.30;13.83;;;;;;;;;;5003718;28;20239;-73
2022/03/01 00:23:56;;;;;;;26.87;14.23;;;;;;;;;;5010027;28;20269;-73
2022/03/01 00:26:23;;;;;;;19.90;11.50;;;;;;;;;;5004161;28;20864;-73
2022/03/01 00:28:49;;;;;;;31.60;15.73;;;;;;;;;;5004700;28;20531;-73
2022/03/01 00:31:16;;;;;;;26.53;13.80;;;;;;;;;;5002864;28;20183;-73
2022/03/01 00:33:42;;;;;;;24.40;13.37;;;;;;;;;;5009704;28;20203;-74
2022/03/01 00:36:09;;;;;;;20.80;11.73;;;;;;;;;;5004131;28;20299;-73
2022/03/01 00:38:36;;;;;;;19.53;10.87;;;;;;;;;;5004126;28;21447;-73
2022/03/01 00:41:02;;;;;;;18.87;10.47;;;;;;;;;;5005361;28;20183;-73
2022/03/01 00:43:29;;;;;;;19.47;10.67;;;;;;;;;;5002164;28;20210;-73
2022/03/01 00:45:55;;;;;;;27.23;14.13;;;;;;;;;;5001457;28;20191;-74
2022/03/01 00:48:22;;;;;;;19.40;10.70;;;;;;;;;;5002259;28;20199;-74
2022/03/01 00:50:48;;;;;;;36.57;17.57;;;;;;;;;;5002823;28;22377;-73
2022/03/01 00:53:15;;;;;;;39.23;19.43;;;;;;;;;;5001610;28;20183;-73
2022/03/01 00:55:42;;;;;;;25.07;13.27;;;;;;;;;;5006074;28;21098;-75
2022/03/01 00:58:08;;;;;;;48.93;24.40;;;;;;;;;;5002928;28;20262;-73
2022/03/01 01:00:34;;;;;;;93.57;38.60;;;;;;;;;;5004207;28;20267;-73
2022/03/01 01:03:01;;;;;;;33.80;18.33;;;;;;;;;;5005641;28;20685;-74
2022/03/01 01:05:27;;;;;;;22.43;13.17;;;;;;;;;;5003848;28;20558;-73
2022/03/01 01:07:54;;;;;;;19.17;11.00;;;;;;;;;;5004776;28;20210;-73
2022/03/01 01:10:20;;;;;;;15.23;9.63;;;;;;;;;;5006292;28;20198;-73
2022/03/01 01:12:47;;;;;;;15.13;8.73;;;;;;;;;;5008783;28;20183;-74
2022/03/01 01:15:14;;;;;;;15.73;8.70;;;;;;;;;;5010917;28;20211;-74
2022/03/01 01:17:40;;;;;;;12.90;7.87;;;;;;;;;;5008682;28;20257;-73
2022/03/01 01:20:08;;;;;;;17.13;8.67;;;;;;;;;;5007565;28;20175;-76
2022/03/01 01:22:41;;;;;;;17.87;9.67;;;;;;;;;;5004246;28;20843;-74
2022/03/01 01:25:09;;;;;;;15.80;9.43;;;;;;;;;;5008698;28;20671;-74
2022/03/01 01:27:36;;;;;;;15.40;9.17;;;;;;;;;;5004284;28;20206;-73
2022/03/01 01:30:03;;;;;;;14.43;8.93;;;;;;;;;;5003241;28;20184;-73
2022/03/01 01:32:29;;;;;;;15.10;9.03;;;;;;;;;;5002758;28;20288;-74
2022/03/01 01:34:56;;;;;;;17.83;10.00;;;;;;;;;;5001117;28;20211;-73
2022/03/01 01:37:22;;;;;;;15.80;9.20;;;;;;;;;;5004263;28;20235;-73
2022/03/01 01:39:48;;;;;;;16.80;9.50;;;;;;;;;;5008811;28;20182;-73
2022/03/01 01:42:14;;;;;;;17.07;9.27;;;;;;;;;;5003725;28;20187;-73
2022/03/01 01:44:43;;;;;;;16.77;9.90;;;;;;;;;;5007866;28;20558;-74
2022/03/01 01:47:09;;;;;;;16.87;9.73;;;;;;;;;;5008921;28;20207;-73
2022/03/01 01:49:35;;;;;;;18.07;10.60;;;;;;;;;;5005263;28;20241;-73
2022/03/01 01:52:01;;;;;;;20.13;10.43;;;;;;;;;;5009776;28;20187;-73
2022/03/01 01:54:28;;;;;;;18.07;9.70;;;;;;;;;;5003748;28;20183;-73
2022/03/01 01:56:54;;;;;;;21.17;10.37;;;;;;;;;;4991759;28;20203;-73
2022/03/01 01:59:21;;;;;;;15.53;9.57;;;;;;;;;;5007714;28;20576;-73
2022/03/01 02:01:47;;;;;;;17.47;9.80;;;;;;;;;;5008474;28;20179;-73
2022/03/01 02:04:13;;;;;;;19.37;10.47;;;;;;;;;;5010382;28;20171;-75
2022/03/01 02:06:52;;;;;;;18.00;10.20;;;;;;;;;;5009077;28;20273;-73
2022/03/01 02:09:18;;;;;;;20.07;10.10;;;;;;;;;;5007582;28;20194;-74
2022/03/01 02:11:45;;;;;;;18.00;10.50;;;;;;;;;;5010490;28;20203;-74
2022/03/01 02:14:11;;;;;;;18.03;9.73;;;;;;;;;;5005819;28;20581;-73
2022/03/01 02:16:38;;;;;;;17.93;9.93;;;;;;;;;;5002423;28;20301;-73
2022/03/01 02:19:05;;;;;;;17.53;9.80;;;;;;;;;;5009089;28;20171;-73
2022/03/01 02:21:31;;;;;;;15.90;9.47;;;;;;;;;;5006530;28;20187;-73
2022/03/01 02:23:58;;;;;;;17.23;10.13;;;;;;;;;;5007429;28;20234;-73
2022/03/01 02:26:24;;;;;;;19.13;9.87;;;;;;;;;;5009655;28;20258;-73
2022/03/01 02:28:50;;;;;;;18.13;10.20;;;;;;;;;;5006623;28;20269;-72
2022/03/01 02:31:16;;;;;;;15.90;9.93;;;;;;;;;;5010036;28;20197;-73
2022/03/01 02:33:42;;;;;;;16.00;9.57;;;;;;;;;;5009001;28;20233;-73
2022/03/01 02:36:09;;;;;;;16.87;9.27;;;;;;;;;;5006050;28;20225;-73
2022/03/01 02:38:35;;;;;;;14.50;9.17;;;;;;;;;;5009905;28;20183;-73
2022/03/01 02:41:01;;;;;;;17.77;9.80;;;;;;;;;;5007222;28;20190;-73
2022/03/01 02:43:27;;;;;;;17.30;9.80;;;;;;;;;;5008986;28;20210;-73
2022/03/01 02:45:53;;;;;;;16.33;9.53;;;;;;;;;;5006107;28;20237;-73
2022/03/01 02:48:20;;;;;;;15.90;9.80;;;;;;;;;;5025958;28;20191;-73
2022/03/01 02:50:46;;;;;;;17.33;10.00;;;;;;;;;;5005527;28;20241;-74
2022/03/01 02:53:12;;;;;;;17.97;9.30;;;;;;;;;;5007769;28;20175;-75
2022/03/01 02:55:38;;;;;;;16.60;9.33;;;;;;;;;;5009444;28;20218;-75
2022/03/01 02:58:04;;;;;;;16.53;9.57;;;;;;;;;;5008277;28;20183;-73
2022/03/01 03:00:30;;;;;;;19.20;10.20;;;;;;;;;;5007177;28;20180;-74
2022/03/01 03:02:56;;;;;;;15.37;9.33;;;;;;;;;;5010170;28;20171;-73
2022/03/01 03:05:22;;;;;;;17.03;10.23;;;;;;;;;;5007324;28;20262;-74
2022/03/01 03:07:49;;;;;;;15.80;9.70;;;;;;;;;;5002778;28;20700;-73
2022/03/01 03:10:15;;;;;;;19.77;9.97;;;;;;;;;;5010679;28;20194;-73
2022/03/01 03:12:41;;;;;;;17.33;9.37;;;;;;;;;;5009354;28;20191;-73
2022/03/01 03:15:08;;;;;;;18.27;10.40;;;;;;;;;;5003887;28;20199;-73
2022/03/01 03:17:34;;;;;;;17.73;9.63;;;;;;;;;;5004643;28;20265;-74
2022/03/01 03:20:00;;;;;;;17.20;10.20;;;;;;;;;;5009239;28;20218;-74
2022/03/01 03:22:26;;;;;;;17.53;9.47;;;;;;;;;;5025820;28;20198;-74
2022/03/01 03:24:52;;;;;;;17.73;9.90;;;;;;;;;;5012761;28;20802;-74
2022/03/01 03:27:18;;;;;;;17.50;10.17;;;;;;;;;;5013069;28;20211;-74
2022/03/01 03:29:45;;;;;;;17.97;10.07;;;;;;;;;;5013019;28;20185;-74
2022/03/01 03:32:11;;;;;;;17.33;9.97;;;;;;;;;;5011451;28;20179;-74
2022/03/01 03:34:37;;;;;;;15.67;9.37;;;;;;;;;;5008339;28;20259;-74
2022/03/01 03:37:03;;;;;;;15.67;9.00;;;;;;;;;;5010404;28;20203;-74
2022/03/01 03:39:29;;;;;;;15.77;9.37;;;;;;;;;;5013414;28;20183;-74
2022/03/01 03:41:56;;;;;;;17.80;9.40;;;;;;;;;;5012956;28;20242;-74
2022/03/01 03:44:22;;;;;;;17.93;10.10;;;;;;;;;;5008239;28;21159;-74
2022/03/01 03:46:48;;;;;;;15.37;9.40;;;;;;;;;;5011281;28;20203;-74
2022/03/01 03:49:14;;;;;;;17.20;9.53;;;;;;;;;;5007379;28;20179;-74
2022/03/01 03:51:40;;;;;;;14.37;9.03;;;;;;;;;;5010542;28;20266;-74
2022/03/01 03:54:07;;;;;;;16.97;9.87;;;;;;;;;;5011627;28;20179;-74
2022/03/01 03:56:33;;;;;;;17.70;10.60;;;;;;;;;;5010694;28;20219;-73
2022/03/01 03:58:59;;;;;;;17.43;9.77;;;;;;;;;;5011944;28;20183;-73
2022/03/01 04:01:25;;;;;;;16.80;10.47;;;;;;;;;;5005835;28;20259;-73
2022/03/01 04:03:52;;;;;;;16.43;10.37;;;;;;;;;;5006359;28;20230;-74
2022/03/01 04:06:18;;;;;;;18.60;10.57;;;;;;;;;;4994015;28;20214;-74
2022/03/01 04:08:44;;;;;;;16.60;10.07;;;;;;;;;;5000736;28;20191;-74
2022/03/01 04:11:10;;;;;;;17.73;9.93;;;;;;;;;;5005045;28;20179;-74
2022/03/01 04:13:36;;;;;;;17.40;10.50;;;;;;;;;;5010645;28;20941;-74
2022/03/01 04:16:03;;;;;;;17.47;10.30;;;;;;;;;;5010876;28;20234;-74
2022/03/01 04:18:29;;;;;;;16.20;9.47;;;;;;;;;;5011963;28;20661;-74
2022/03/01 04:20:55;;;;;;;17.53;9.90;;;;;;;;;;5011270;28;20240;-74
2022/03/01 04:23:21;;;;;;;16.13;9.87;;;;;;;;;;5011877;28;20254;-74
2022/03/01 04:25:47;;;;;;;17.10;9.90;;;;;;;;;;5011835;28;20191;-74
2022/03/01 04:28:14;;;;;;;15.53;9.63;;;;;;;;;;5012169;28;20179;-74
2022/03/01 04:30:40;;;;;;;15.63;9.90;;;;;;;;;;5004513;28;20183;-74
2022/03/01 04:33:06;;;;;;;14.87;9.73;;;;;;;;;;5006056;28;20269;-74
2022/03/01 04:35:33;;;;;;;14.40;8.67;;;;;;;;;;5012506;28;20218;-74
2022/03/01 04:37:59;;;;;;;14.40;9.17;;;;;;;;;;5013086;28;20246;-74
2022/03/01 04:40:25;;;;;;;15.70;9.40;;;;;;;;;;5006134;28;20195;-74
2022/03/01 04:42:51;;;;;;;17.67;10.40;;;;;;;;;;5008662;28;20179;-74
2022/03/01 04:45:18;;;;;;;16.47;9.73;;;;;;;;;;5000250;28;20215;-74
2022/03/01 04:47:44;;;;;;;14.47;9.20;;;;;;;;;;5025234;28;20228;-74
2022/03/01 04:50:10;;;;;;;18.20;9.83;;;;;;;;;;5012008;28;20183;-73
2022/03/01 04:52:36;;;;;;;17.27;10.07;;;;;;;;;;5007156;28;20198;-74
2022/03/01 04:55:03;;;;;;;16.07;9.53;;;;;;;;;;5011424;28;20670;-73
2022/03/01 04:57:29;;;;;;;18.07;9.80;;;;;;;;;;5003253;28;20224;-74
2022/03/01 04:59:55;;;;;;;20.40;10.90;;;;;;;;;;5005454;28;20187;-74
2022/03/01 05:02:21;;;;;;;17.33;10.70;;;;;;;;;;5004435;28;20179;-74
2022/03/01 05:04:47;;;;;;;18.77;11.03;;;;;;;;;;5008870;28;20191;-73
2022/03/01 05:07:14;;;;;;;17.00;10.70;;;;;;;;;;5007920;28;20230;-73
2022/03/01 05:09:42;;;;;;;19.70;10.67;;;;;;;;;;5010547;28;20218;-73
2022/03/01 05:12:09;;;;;;;17.77;10.73;;;;;;;;;;5010748;28;20710;-73
2022/03/01 05:14:35;;;;;;;20.20;10.83;;;;;;;;;;5007697;28;20267;-73
2022/03/01 05:17:01;;;;;;;19.97;11.23;;;;;;;;;;5010756;28;20697;-73
2022/03/01 05:19:29;;;;;;;17.40;10.00;;;;;;;;;;5006506;28;20176;-73
2022/03/01 05:21:55;;;;;;;17.90;10.33;;;;;;;;;;4993772;28;20558;-73
2022/03/01 05:24:22;;;;;;;18.03;10.30;;;;;;;;;;5010471;28;22161;-73
2022/03/01 05:26:50;;;;;;;21.10;10.60;;;;;;;;;;5000230;28;20200;-73
2022/03/01 05:29:16;;;;;;;17.70;10.80;;;;;;;;;;5005762;28;20554;-73
2022/03/01 05:31:42;;;;;;;17.70;10.33;;;;;;;;;;5008153;28;21939;-73
2022/03/01 05:34:08;;;;;;;17.47;10.87;;;;;;;;;;5009825;28;20187;-73
2022/03/01 05:36:34;;;;;;;19.30;11.03;;;;;;;;;;5010143;28;20286;-73
2022/03/01 05:39:01;;;;;;;19.07;11.17;;;;;;;;;;5001618;28;20192;-73
2022/03/01 05:41:28;;;;;;;22.27;11.50;;;;;;;;;;5003367;28;20274;-73
2022/03/01 05:43:54;;;;;;;19.13;10.90;;;;;;;;;;5010391;28;20221;-73
2022/03/01 05:46:20;;;;;;;17.53;11.17;;;;;;;;;;5010665;28;20638;-73
2022/03/01 05:48:46;;;;;;;20.50;11.00;;;;;;;;;;5007732;28;20183;-73
2022/03/01 05:51:12;;;;;;;19.70;10.60;;;;;;;;;;5010821;28;20194;-74
2022/03/01 05:53:39;;;;;;;17.47;10.20;;;;;;;;;;5006158;28;20651;-73
2022/03/01 05:56:05;;;;;;;16.40;10.00;;;;;;;;;;5007671;28;20222;-73
2022/03/01 05:58:31;;;;;;;18.47;10.70;;;;;;;;;;5010504;28;20190;-73
2022/03/01 06:00:57;;;;;;;18.53;10.03;;;;;;;;;;4975179;28;20184;-73
2022/03/01 06:03:23;;;;;;;18.20;10.90;;;;;;;;;;5006932;28;20620;-73
2022/03/01 06:05:49;;;;;;;16.67;10.67;;;;;;;;;;5010043;28;20179;-73
2022/03/01 06:08:17;;;;;;;16.50;9.80;;;;;;;;;;5009429;28;20223;-73
2022/03/01 06:10:43;;;;;;;17.30;9.90;;;;;;;;;;5010837;28;20594;-73
2022/03/01 06:13:09;;;;;;;17.50;9.90;;;;;;;;;;5007978;28;20179;-73
2022/03/01 06:15:35;;;;;;;18.97;10.70;;;;;;;;;;5009632;28;20218;-73
2022/03/01 06:18:01;;;;;;;16.10;10.27;;;;;;;;;;5002384;28;20255;-73
2022/03/01 06:20:27;;;;;;;17.63;10.83;;;;;;;;;;4999534;28;20183;-73
2022/03/01 06:22:53;;;;;;;18.23;10.57;;;;;;;;;;5009381;28;20188;-74
2022/03/01 06:25:20;;;;;;;16.63;10.20;;;;;;;;;;5011941;28;20269;-73
2022/03/01 06:27:46;;;;;;;16.70;9.80;;;;;;;;;;5005485;28;20213;-73
2022/03/01 06:30:12;;;;;;;17.27;10.50;;;;;;;;;;5008427;28;20200;-73
2022/03/01 06:32:39;;;;;;;19.87;10.83;;;;;;;;;;5007486;28;20191;-74
2022/03/01 06:35:05;;;;;;;17.20;10.43;;;;;;;;;;5011337;28;20314;-73
2022/03/01 06:37:31;;;;;;;19.27;11.00;;;;;;;;;;5002775;28;20233;-73
2022/03/01 06:39:57;;;;;;;20.57;10.53;;;;;;;;;;5010965;28;20245;-73
2022/03/01 06:42:24;;;;;;;20.80;10.93;;;;;;;;;;5008173;28;20179;-73
2022/03/01 06:44:50;;;;;;;16.63;10.47;;;;;;;;;;5010033;28;20218;-73
2022/03/01 06:47:18;;;;;;;18.10;10.43;;;;;;;;;;5009241;28;20210;-73
2022/03/01 06:49:44;;;;;;;17.07;10.37;;;;;;;;;;5010918;28;20682;-73
2022/03/01 06:52:10;;;;;;;16.77;10.40;;;;;;;;;;5007525;28;20190;-73
2022/03/01 06:54:36;;;;;;;15.33;8.97;;;;;;;;;;5003536;28;20203;-73
2022/03/01 06:57:03;;;;;;;15.33;9.63;;;;;;;;;;5005919;28;20274;-77
2022/03/01 06:59:29;;;;;;;15.60;9.83;;;;;;;;;;5006757;28;20191;-77
2022/03/01 07:01:56;;;;;;;15.00;8.73;;;;;;;;;;5009977;28;20192;-77
2022/03/01 07:04:22;;;;;;;17.47;9.80;;;;;;;;;;5013565;28;20190;-76
2022/03/01 07:06:48;;;;;;;16.37;10.20;;;;;;;;;;5005019;28;20212;-76
2022/03/01 07:09:14;;;;;;;15.13;9.93;;;;;;;;;;5024074;28;20222;-77
2022/03/01 07:11:40;;;;;;;15.87;10.10;;;;;;;;;;5003993;28;20261;-77
2022/03/01 07:14:07;;;;;;;18.40;10.33;;;;;;;;;;5001716;28;20187;-76
2022/03/01 07:16:33;;;;;;;15.47;9.97;;;;;;;;;;5003943;28;20837;-75
2022/03/01 07:19:00;;;;;;;16.00;9.37;;;;;;;;;;5006343;28;20192;-75
2022/03/01 07:21:27;;;;;;;17.47;10.37;;;;;;;;;;5005562;28;20179;-76
2022/03/01 07:23:53;;;;;;;18.97;9.87;;;;;;;;;;4975265;28;20689;-74
2022/03/01 07:26:19;;;;;;;15.70;9.47;;;;;;;;;;5002699;28;20211;-75
2022/03/01 07:28:46;;;;;;;16.43;9.63;;;;;;;;;;4973508;28;20202;-76
2022/03/01 07:31:12;;;;;;;16.27;9.43;;;;;;;;;;5004772;28;20183;-75
2022/03/01 07:33:40;;;;;;;18.93;9.87;;;;;;;;;;5002721;28;20382;-75
2022/03/01 07:36:07;;;;;;;17.00;9.90;;;;;;;;;;5003018;28;20222;-75
2022/03/01 07:38:33;;;;;;;17.00;10.20;;;;;;;;;;5005669;28;20194;-76
2022/03/01 07:41:00;;;;;;;13.90;9.10;;;;;;;;;;5003980;28;20183;-75
2022/03/01 07:43:26;;;;;;;15.30;9.17;;;;;;;;;;5002326;28;20237;-76
2022/03/01 07:45:52;;;;;;;15.40;9.67;;;;;;;;;;5004901;28;20213;-75
2022/03/01 07:48:18;;;;;;;15.53;9.40;;;;;;;;;;5004006;28;20396;-76
2022/03/01 07:50:44;;;;;;;13.70;9.27;;;;;;;;;;5002598;28;20184;-76
2022/03/01 07:53:11;;;;;;;17.20;9.80;;;;;;;;;;5001630;28;20183;-76
2022/03/01 07:55:37;;;;;;;16.20;9.97;;;;;;;;;;5005517;28;20194;-76
2022/03/01 07:58:03;;;;;;;14.83;9.63;;;;;;;;;;5003080;28;20667;-76
2022/03/01 08:00:29;;;;;;;14.40;9.63;;;;;;;;;;5002290;28;20241;-76
2022/03/01 08:02:55;;;;;;;16.80;9.70;;;;;;;;;;5000351;28;20192;-76
2022/03/01 08:05:22;;;;;;;16.37;9.70;;;;;;;;;;5003229;28;20183;-76
2022/03/01 08:07:49;;;;;;;16.37;9.57;;;;;;;;;;5004405;28;20239;-75
2022/03/01 08:10:15;;;;;;;15.10;9.47;;;;;;;;;;5005258;28;20195;-75
2022/03/01 08:12:42;;;;;;;16.13;9.43;;;;;;;;;;5007232;28;20194;-76
2022/03/01 08:15:09;;;;;;;13.87;9.33;;;;;;;;;;5007945;28;20826;-74
2022/03/01 08:17:35;;;;;;;14.80;9.27;;;;;;;;;;5007155;28;20199;-74
2022/03/01 08:20:01;;;;;;;15.77;9.93;;;;;;;;;;5008861;28;20183;-78
2022/03/01 08:22:27;;;;;;;16.70;9.77;;;;;;;;;;5007326;28;20928;-76
2022/03/01 08:24:53;;;;;;;14.77;9.80;;;;;;;;;;5008093;28;20199;-76
2022/03/01 08:27:20;;;;;;;14.10;9.53;;;;;;;;;;5009230;28;20285;-76
2022/03/01 08:29:46;;;;;;;14.13;9.53;;;;;;;;;;5008693;28;20183;-77
2022/03/01 08:32:12;;;;;;;14.57;9.03;;;;;;;;;;5011602;28;20183;-75
2022/03/01 08:34:38;;;;;;;14.97;9.17;;;;;;;;;;5006106;28;20216;-75
2022/03/01 08:37:04;;;;;;;14.17;8.70;;;;;;;;;;5009326;28;20199;-77
2022/03/01 08:39:30;;;;;;;15.27;9.30;;;;;;;;;;5012943;28;20179;-78
2022/03/01 08:41:57;;;;;;;15.97;9.73;;;;;;;;;;5013607;28;20204;-78
2022/03/01 08:44:23;;;;;;;13.90;9.40;;;;;;;;;;5008781;28;20202;-76
2022/03/01 08:46:49;;;;;;;14.60;9.53;;;;;;;;;;5008586;28;20207;-76
2022/03/01 08:49:15;;;;;;;13.37;8.80;;;;;;;;;;5009222;28;20241;-72
2022/03/01 08:51:41;;;;;;;15.53;9.30;;;;;;;;;;5006421;28;20278;-73
2022/03/01 08:54:08;;;;;;;14.87;9.23;;;;;;;;;;5008485;28;20187;-73
2022/03/01 08:56:34;;;;;;;15.50;9.80;;;;;;;;;;5006640;28;20219;-74
2022/03/01 08:59:00;;;;;;;13.67;9.03;;;;;;;;;;5011442;28;20211;-73
2022/03/01 09:01:26;;;;;;;15.07;9.40;;;;;;;;;;5010978;28;20183;-73
2022/03/01 09:03:53;;;;;;;13.50;8.90;;;;;;;;;;5012360;28;20667;-74
2022/03/01 09:06:20;;;;;;;12.13;7.77;;;;;;;;;;5009816;28;20698;-74
2022/03/01 09:08:46;;;;;;;12.93;8.00;;;;;;;;;;5011964;28;20179;-74
2022/03/01 09:11:13;;;;;;;13.17;8.57;;;;;;;;;;5007630;28;20203;-74
2022/03/01 09:13:39;;;;;;;13.60;9.00;;;;;;;;;;5010487;28;20865;-74
2022/03/01 09:16:06;;;;;;;14.30;8.83;;;;;;;;;;5009453;28;20211;-73
2022/03/01 09:18:33;;;;;;;12.50;8.70;;;;;;;;;;5010625;28;20193;-73
2022/03/01 09:21:00;;;;;;;14.73;9.27;;;;;;;;;;5010018;28;20211;-73
2022/03/01 09:23:26;;;;;;;13.00;9.07;;;;;;;;;;5010498;28;20195;-73
2022/03/01 09:25:52;;;;;;;12.13;8.23;;;;;;;;;;5009711;28;20222;-74
2022/03/01 09:28:18;;;;;;;15.10;8.43;;;;;;;;;;5008598;28;20198;-73
2022/03/01 09:30:45;;;;;;;14.40;8.60;;;;;;;;;;5009991;28;20187;-73
2022/03/01 09:33:11;;;;;;;12.60;8.43;;;;;;;;;;5010948;28;20191;-73
2022/03/01 09:35:37;;;;;;;13.43;8.53;;;;;;;;;;5007071;28;20207;-73
2022/03/01 09:38:03;;;;;;;14.80;8.90;;;;;;;;;;5011144;28;20198;-73
2022/03/01 09:40:29;;;;;;;13.40;9.13;;;;;;;;;;5012761;28;20191;-74
2022/03/01 09:42:56;;;;;;;14.23;8.90;;;;;;;;;;5011029;28;20179;-74
2022/03/01 09:45:23;;;;;;;11.83;8.53;;;;;;;;;;5014355;28;20198;-73
2022/03/01 09:47:49;;;;;;;12.90;7.60;;;;;;;;;;5016919;28;20697;-73
2022/03/01 09:50:15;;;;;;;13.40;7.90;;;;;;;;;;5007676;28;20192;-73
2022/03/01 09:52:42;;;;;;;12.20;8.30;;;;;;;;;;5007076;28;20193;-73
2022/03/01 09:55:09;;;;;;;17.50;10.70;;;;;;;;;;5012838;28;20199;-74
2022/03/01 09:57:35;;;;;;;14.20;9.07;;;;;;;;;;5008526;28;20568;-74
2022/03/01 10:00:01;;;;;;;12.63;8.40;;;;;;;;;;5010535;28;20346;-74
2022/03/01 10:02:38;;;;;;;13.23;8.23;;;;;;;;;;5006988;28;20179;-74
2022/03/01 10:05:05;;;;;;;14.40;8.00;;;;;;;;;;5004136;28;20274;-74
2022/03/01 10:07:32;;;;;;;15.00;8.37;;;;;;;;;;5007706;28;20230;-74
2022/03/01 10:10:05;;;;;;;12.50;7.93;;;;;;;;;;5004921;28;20682;-74
2022/03/01 10:12:32;;;;;;;10.73;7.87;;;;;;;;;;5010940;28;20586;-74
2022/03/01 10:15:02;;;;;;;11.97;7.70;;;;;;;;;;5013716;28;20211;-75
2022/03/01 10:17:36;;;;;;;10.87;7.73;;;;;;;;;;5004111;28;20624;-76
2022/03/01 10:20:20;;;;;;;12.00;8.37;;;;;;;;;;5008948;28;20720;-74
2022/03/01 10:22:51;;;;;;;12.67;8.53;;;;;;;;;;4994983;28;20184;-74
2022/03/01 10:25:18;;;;;;;23.37;13.30;;;;;;;;;;5002083;28;20266;-74
2022/03/01 10:27:45;;;;;;;13.43;9.10;;;;;;;;;;5010664;28;20285;-74
2022/03/01 10:30:11;;;;;;;13.30;9.10;;;;;;;;;;5006111;28;20598;-74
2022/03/01 10:32:38;;;;;;;12.33;8.10;;;;;;;;;;5006808;28;20183;-74
2022/03/01 10:35:08;;;;;;;14.50;8.50;;;;;;;;;;5009899;28;20201;-75
2022/03/01 10:37:36;;;;;;;13.40;9.17;;;;;;;;;;5005176;28;20203;-74
2022/03/01 10:40:21;;;;;;;13.20;9.20;;;;;;;;;;5011694;28;20294;-75
2022/03/01 10:43:05;;;;;;;11.90;8.33;;;;;;;;;;5003936;28;20270;-74
2022/03/01 10:45:35;;;;;;;12.47;8.30;;;;;;;;;;5004229;28;20191;-74
2022/03/01 10:48:03;;;;;;;15.23;8.50;;;;;;;;;;5000815;28;20671;-75
2022/03/01 10:50:29;;;;;;;13.47;8.20;;;;;;;;;;5006662;28;20270;-74
2022/03/01 10:52:55;;;;;;;13.53;9.03;;;;;;;;;;5009774;28;20285;-74
2022/03/01 10:55:26;;;;;;;12.73;8.80;;;;;;;;;;4999986;28;20207;-74
2022/03/01 10:57:58;;;;;;;11.97;8.70;;;;;;;;;;5008082;28;20601;-74
2022/03/01 11:00:25;;;;;;;12.57;8.03;;;;;;;;;;5007900;28;20190;-74
2022/03/01 11:02:51;;;;;;;10.40;7.40;;;;;;;;;;5024305;28;20540;-74
2022/03/01 11:05:17;;;;;;;14.33;8.10;;;;;;;;;;5011074;28;20309;-75
2022/03/01 11:07:44;;;;;;;12.53;8.30;;;;;;;;;;4998717;28;20306;-74
2022/03/01 11:10:12;;;;;;;14.13;8.30;;;;;;;;;;4996067;28;20197;-74
2022/03/01 11:12:42;;;;;;;12.57;8.20;;;;;;;;;;5007097;28;20179;-75
2022/03/01 11:15:08;;;;;;;10.70;7.83;;;;;;;;;;5007901;28;20199;-75
2022/03/01 11:17:53;;;;;;;11.93;7.97;;;;;;;;;;5008199;28;20340;-74
2022/03/01 11:20:22;;;;;;;11.80;8.23;;;;;;;;;;5008614;28;20194;-75
2022/03/01 11:22:57;;;;;;;12.67;8.00;;;;;;;;;;5007399;28;20762;-75
2022/03/01 11:25:25;;;;;;;12.13;8.30;;;;;;;;;;5009397;28;20249;-74
2022/03/01 11:27:52;;;;;;;10.40;7.63;;;;;;;;;;5008141;28;20298;-75
2022/03/01 11:30:25;;;;;;;11.50;8.07;;;;;;;;;;5007989;28;20542;-74
2022/03/01 11:32:54;;;;;;;11.03;7.80;;;;;;;;;;5009160;28;20194;-75
2022/03/01 11:35:22;;;;;;;11.50;7.40;;;;;;;;;;5009707;28;20207;-75
2022/03/01 11:38:02;;;;;;;13.40;7.90;;;;;;;;;;4998996;28;20203;-74
2022/03/01 11:40:30;;;;;;;13.43;8.13;;;;;;;;;;5008377;28;20179;-74
2022/03/01 11:43:06;;;;;;;12.93;8.20;;;;;;;;;;5012139;28;20179;-74
2022/03/01 11:45:34;;;;;;;12.13;8.73;;;;;;;;;;5010860;28;20266;-74
2022/03/01 11:48:07;;;;;;;13.83;8.80;;;;;;;;;;5017040;28;20222;-74
2022/03/01 11:50:33;;;;;;;13.03;8.63;;;;;;;;;;5013653;28;20179;-75
2022/03/01 11:53:05;;;;;;;14.17;9.43;;;;;;;;;;5013795;28;20191;-75
2022/03/01 11:55:40;;;;;;;12.27;8.67;;;;;;;;;;5014021;28;20211;-75
2022/03/01 11:58:06;;;;;;;14.00;8.53;;;;;;;;;;5012623;28;20186;-75
2022/03/01 12:00:33;;;;;;;14.83;9.77;;;;;;;;;;5013760;28;20568;-75
2022/03/01 12:03:00;;;;;;;14.30;9.40;;;;;;;;;;5008727;28;20221;-73
2022/03/01 12:05:26;;;;;;;13.63;9.13;;;;;;;;;;5017136;28;20206;-75
2022/03/01 12:07:53;;;;;;;12.17;8.77;;;;;;;;;;5013178;28;20235;-75
2022/03/01 12:10:23;;;;;;;12.00;8.73;;;;;;;;;;5012128;28;20187;-75
2022/03/01 12:12:52;;;;;;;13.10;9.20;;;;;;;;;;5011732;28;20282;-75
2022/03/01 12:15:29;;;;;;;13.87;9.63;;;;;;;;;;5013283;28;20214;-78
2022/03/01 12:17:55;;;;;;;13.90;9.03;;;;;;;;;;5007655;28;20207;-78
2022/03/01 12:20:22;;;;;;;14.30;9.67;;;;;;;;;;5027320;28;20184;-78
2022/03/01 12:22:58;;;;;;;12.17;8.07;;;;;;;;;;5007448;28;20195;-76
2022/03/01 12:25:26;;;;;;;12.10;8.63;;;;;;;;;;5006966;28;20229;-76
2022/03/01 12:27:52;;;;;;;15.17;8.80;;;;;;;;;;5008948;28;20241;-77
2022/03/01 12:30:20;;;;;;;11.70;7.90;;;;;;;;;;5012995;28;20538;-77
2022/03/01 12:33:04;;;;;;;11.77;8.30;;;;;;;;;;5008015;28;20188;-77
2022/03/01 12:35:30;;;;;;;12.60;8.07;;;;;;;;;;5004857;28;20226;-79
2022/03/01 12:38:26;;;;;;;10.97;8.07;;;;;;;;;;5001291;28;20199;-77
2022/03/01 12:40:52;;;;;;;12.73;8.83;;;;;;;;;;4995410;28;20199;-77
2022/03/01 12:43:18;;;;;;;11.87;8.63;;;;;;;;;;5024491;28;20678;-78
2022/03/01 12:45:45;;;;;;;11.93;8.60;;;;;;;;;;5005301;28;20259;-76
2022/03/01 12:48:13;;;;;;;12.97;9.07;;;;;;;;;;5011847;28;20195;-77
2022/03/01 12:50:47;;;;;;;10.90;8.53;;;;;;;;;;4999627;28;20575;-77
2022/03/01 12:53:13;;;;;;;14.13;9.67;;;;;;;;;;5002269;28;20191;-76
2022/03/01 12:55:40;;;;;;;11.23;8.30;;;;;;;;;;5013664;28;20357;-76
2022/03/01 12:58:17;;;;;;;13.57;10.97;;;;;;;;;;5012858;28;20187;-77
2022/03/01 13:00:43;;;;;;;13.20;9.17;;;;;;;;;;5006910;28;20188;-77
2022/03/01 13:03:10;;;;;;;10.90;9.03;;;;;;;;;;5011903;28;20213;-78
2022/03/01 13:05:36;;;;;;;11.67;9.30;;;;;;;;;;5012454;28;20213;-79
2022/03/01 13:08:03;;;;;;;12.20;9.20;;;;;;;;;;5018276;28;20318;-78
2022/03/01 13:10:34;;;;;;;12.10;8.93;;;;;;;;;;5018279;28;20186;-79
2022/03/01 13:13:06;;;;;;;12.87;9.43;;;;;;;;;;5015155;28;20194;-81
2022/03/01 13:15:32;;;;;;;10.73;9.00;;;;;;;;;;4999301;28;20195;-82
2022/03/01 13:18:01;;;;;;;10.73;8.77;;;;;;;;;;5016318;28;20207;-80
2022/03/01 13:20:27;;;;;;;11.23;8.97;;;;;;;;;;5015473;28;20186;-77
2022/03/01 13:22:59;;;;;;;10.93;8.30;;;;;;;;;;5008943;28;20202;-77
2022/03/01 13:25:26;;;;;;;11.43;9.07;;;;;;;;;;5008539;28;20184;-77
2022/03/01 13:27:53;;;;;;;11.27;8.77;;;;;;;;;;5011778;28;20207;-77
2022/03/01 13:30:23;;;;;;;10.77;8.47;;;;;;;;;;5005260;28;20274;-77
2022/03/01 13:32:50;;;;;;;9.97;8.10;;;;;;;;;;5010523;28;20236;-76
2022/03/01 13:35:16;;;;;;;11.37;8.67;;;;;;;;;;5009477;28;20209;-76
2022/03/01 13:37:43;;;;;;;9.60;8.57;;;;;;;;;;5001729;28;20234;-77
2022/03/01 13:40:10;;;;;;;10.70;8.73;;;;;;;;;;5007819;28;20686;-76
2022/03/01 13:42:36;;;;;;;11.57;8.60;;;;;;;;;;5005850;28;20195;-76
2022/03/01 13:45:09;;;;;;;10.43;8.97;;;;;;;;;;5008593;28;20191;-77
2022/03/01 13:47:36;;;;;;;10.53;8.80;;;;;;;;;;5008926;28;20207;-76
2022/03/01 13:50:05;;;;;;;11.63;9.07;;;;;;;;;;5006899;28;20189;-79
2022/03/01 13:52:35;;;;;;;11.33;9.20;;;;;;;;;;5009316;28;20413;-78
2022/03/01 13:55:03;;;;;;;11.73;8.77;;;;;;;;;;5008873;28;20179;-79
2022/03/01 13:57:31;;;;;;;11.33;8.17;;;;;;;;;;5010576;28;20239;-77
2022/03/01 14:00:06;;;;;;;10.47;8.83;;;;;;;;;;5013510;28;20239;-79
2022/03/01 14:02:58;;;;;;;10.30;7.93;;;;;;;;;;5014713;28;20194;-77
2022/03/01 14:05:26;;;;;;;9.87;7.70;;;;;;;;;;5010918;28;20198;-79
2022/03/01 14:08:05;;;;;;;10.27;8.27;;;;;;;;;;4994718;28;20253;-78
2022/03/01 14:10:33;;;;;;;9.57;7.30;;;;;;;;;;5010588;28;20193;-79
2022/03/01 14:13:00;;;;;;;9.50;8.00;;;;;;;;;;5014094;28;20214;-81
2022/03/01 14:15:32;;;;;;;9.07;8.00;;;;;;;;;;5004052;28;20207;-78
2022/03/01 14:17:58;;;;;;;10.63;8.17;;;;;;;;;;5017746;28;20235;-74
2022/03/01 14:20:25;;;;;;;10.53;8.27;;;;;;;;;;5003336;28;20194;-74
2022/03/01 14:22:51;;;;;;;10.43;8.47;;;;;;;;;;5005058;28;20551;-74
2022/03/01 14:25:17;;;;;;;10.63;7.70;;;;;;;;;;5006646;28;20200;-74
2022/03/01 14:27:44;;;;;;;10.87;7.83;;;;;;;;;;5010581;28;20289;-74